createdAt,value
2023-09-18T00:01:37.460Z,7.75
2023-09-18T00:04:06.340Z,7.95
2023-09-18T00:06:35.451Z,8.23
2023-09-18T00:09:03.836Z,7.93
2023-09-18T00:11:32.208Z,8.05
2023-09-18T00:14:02.039Z,8.95
2023-09-18T00:16:34.198Z,8.38
2023-09-18T00:19:07.887Z,9.50
2023-09-18T00:21:36.494Z,8.63
2023-09-18T00:24:05.341Z,8.77
2023-09-18T00:26:33.741Z,8.65
2023-09-18T00:29:03.605Z,8.77
2023-09-18T00:31:32.014Z,9.25
2023-09-18T00:34:00.425Z,8.60
2023-09-18T00:36:28.769Z,8.75
2023-09-18T00:38:57.079Z,8.10
2023-09-18T00:41:25.664Z,7.38
2023-09-18T00:43:54.033Z,7.50
2023-09-18T00:46:24.354Z,7.95
2023-09-18T00:48:53.483Z,7.22
2023-09-18T00:51:22.228Z,7.00
2023-09-18T00:53:51.317Z,7.32
2023-09-18T00:56:23.811Z,6.75
2023-09-18T00:58:53.306Z,5.60
2023-09-18T01:01:24.410Z,5.07
2023-09-18T01:03:54.958Z,5.15
2023-09-18T01:06:23.450Z,5.53
2023-09-18T01:08:54.770Z,5.68
2023-09-18T01:11:33.106Z,5.65
2023-09-18T01:14:23.030Z,5.05
2023-09-18T01:16:57.816Z,4.65
2023-09-18T01:19:40.034Z,4.65
2023-09-18T01:22:09.180Z,4.18
2023-09-18T01:24:40.348Z,4.47
2023-09-18T01:27:11.261Z,3.22
2023-09-18T01:29:39.596Z,2.60
2023-09-18T01:32:08.126Z,2.17
2023-09-18T01:34:40.833Z,2.22
2023-09-18T01:37:11.500Z,2.23
2023-09-18T01:39:42.009Z,2.65
2023-09-18T01:42:11.964Z,2.88
2023-09-18T01:44:40.446Z,1.75
2023-09-18T01:47:10.920Z,1.35
2023-09-18T01:49:40.687Z,1.67
2023-09-18T01:52:10.594Z,1.30
2023-09-18T01:54:40.731Z,0.95
2023-09-18T01:57:09.622Z,1.10
2023-09-18T01:59:38.154Z,1.20
2023-09-18T02:02:10.915Z,1.55
2023-09-18T02:05:06.245Z,0.95
2023-09-18T02:07:33.000Z,1.02
2023-09-18T02:10:02.759Z,0.60
2023-09-18T02:12:31.254Z,0.60
2023-09-18T02:15:07.094Z,0.90
2023-09-18T02:17:35.967Z,0.80
2023-09-18T02:20:12.947Z,0.90
2023-09-18T02:22:42.124Z,0.73
2023-09-18T02:25:12.088Z,0.90
2023-09-18T02:27:40.628Z,0.60
2023-09-18T02:30:11.084Z,0.52
2023-09-18T02:32:39.622Z,0.45
2023-09-18T02:35:10.044Z,0.60
2023-09-18T02:37:38.784Z,0.70
2023-09-18T02:40:10.130Z,0.85
2023-09-18T02:42:40.001Z,1.42
2023-09-18T02:45:09.572Z,0.40
2023-09-18T02:47:39.089Z,0.60
2023-09-18T02:50:08.388Z,0.73
2023-09-18T02:52:36.759Z,0.68
2023-09-18T02:55:06.189Z,0.50
2023-09-18T02:57:34.745Z,0.50
2023-09-18T03:00:05.760Z,0.73
2023-09-18T03:02:35.378Z,0.70
2023-09-18T03:05:04.255Z,0.30
2023-09-18T03:07:33.037Z,0.85
2023-09-18T03:10:01.355Z,0.50
2023-09-18T03:12:30.048Z,0.40
2023-09-18T03:14:58.477Z,0.40
2023-09-18T03:17:28.750Z,0.35
2023-09-18T03:19:57.121Z,0.15
2023-09-18T03:22:25.422Z,0.50
2023-09-18T03:24:55.034Z,0.60
2023-09-18T03:27:29.726Z,0.22
2023-09-18T03:29:59.058Z,0.30
2023-09-18T03:32:29.009Z,0.47
2023-09-18T03:34:57.446Z,0.40
2023-09-18T03:37:26.126Z,0.30
2023-09-18T03:39:54.704Z,0.40
2023-09-18T03:42:23.356Z,0.20
2023-09-18T03:44:51.797Z,0.70
2023-09-18T03:47:20.093Z,0.30
2023-09-18T03:49:49.810Z,0.20
2023-09-18T03:52:18.118Z,0.28
2023-09-18T03:54:46.450Z,0.35
2023-09-18T03:57:14.997Z,0.38
2023-09-18T03:59:43.455Z,0.52
2023-09-18T04:02:11.913Z,0.35
2023-09-18T04:04:40.322Z,0.38
2023-09-18T04:07:12.595Z,0.50
2023-09-18T04:09:41.118Z,0.32
2023-09-18T04:12:09.933Z,0.65
2023-09-18T04:14:38.450Z,0.50
2023-09-18T04:17:07.222Z,0.40
2023-09-18T04:19:35.794Z,0.30
2023-09-18T04:22:04.291Z,0.40
2023-09-18T04:24:34.055Z,0.40
2023-09-18T04:27:02.571Z,0.50
2023-09-18T04:29:31.520Z,0.47
2023-09-18T04:32:00.421Z,0.28
2023-09-18T04:34:29.957Z,0.30
2023-09-18T04:36:58.523Z,0.50
2023-09-18T04:39:26.897Z,0.30
2023-09-18T04:41:56.844Z,0.50
2023-09-18T04:44:25.377Z,0.73
2023-09-18T04:46:54.724Z,0.85
2023-09-18T04:49:24.951Z,0.70
2023-09-18T04:51:53.896Z,0.65
2023-09-18T04:54:22.547Z,0.50
2023-09-18T04:56:50.956Z,0.70
2023-09-18T04:59:20.696Z,0.93
2023-09-18T05:01:49.271Z,1.10
2023-09-18T05:04:18.248Z,2.17
2023-09-18T05:06:46.643Z,1.42
2023-09-18T05:09:15.955Z,1.77
2023-09-18T05:11:44.463Z,1.88
2023-09-18T05:14:13.896Z,2.35
2023-09-18T05:16:43.753Z,1.85
2023-09-18T05:19:12.447Z,1.83
2023-09-18T05:21:40.765Z,2.15
2023-09-18T05:24:09.488Z,2.35
2023-09-18T05:26:37.901Z,2.38
2023-09-18T05:29:06.484Z,2.28
2023-09-18T05:31:34.909Z,2.55
2023-09-18T05:34:04.668Z,2.20
2023-09-18T05:36:33.111Z,2.95
2023-09-18T05:39:01.437Z,2.72
2023-09-18T05:41:30.296Z,2.65
2023-09-18T05:43:58.869Z,3.40
2023-09-18T05:46:27.292Z,3.53
2023-09-18T05:48:58.171Z,3.35
2023-09-18T05:51:28.471Z,3.10
2023-09-18T05:53:56.849Z,2.42
2023-09-18T05:56:25.789Z,3.30
2023-09-18T05:58:54.491Z,3.17
2023-09-18T06:01:23.039Z,2.83
2023-09-18T06:03:51.488Z,2.72
2023-09-18T06:06:19.989Z,2.60
2023-09-18T06:08:49.805Z,3.40
2023-09-18T06:11:18.834Z,2.53
2023-09-18T06:13:47.489Z,2.83
2023-09-18T06:16:15.912Z,3.10
2023-09-18T06:18:45.407Z,3.20
2023-09-18T06:21:13.728Z,2.22
2023-09-18T06:23:42.264Z,2.70
2023-09-18T06:26:12.069Z,2.72
2023-09-18T06:28:40.467Z,2.60
2023-09-18T06:31:09.229Z,2.45
2023-09-18T06:33:37.744Z,2.33
2023-09-18T06:36:06.744Z,2.58
2023-09-18T06:38:35.177Z,2.58
2023-09-18T06:41:03.548Z,2.15
2023-09-18T06:43:33.370Z,2.63
2023-09-18T06:46:01.849Z,2.60
2023-09-18T06:48:33.596Z,2.60
2023-09-18T06:51:02.299Z,2.25
2023-09-18T06:53:30.808Z,2.67
2023-09-18T06:55:59.254Z,2.13
2023-09-18T06:58:27.610Z,2.33
2023-09-18T07:00:58.794Z,1.85
2023-09-18T07:03:27.341Z,2.08
2023-09-18T07:05:57.588Z,2.33
2023-09-18T07:08:25.950Z,2.30
2023-09-18T07:10:54.546Z,2.13
2023-09-18T07:13:22.834Z,3.08
2023-09-18T07:15:51.174Z,2.70
2023-09-18T07:18:20.873Z,2.60
2023-09-18T07:20:49.345Z,2.55
2023-09-18T07:23:17.938Z,2.38
2023-09-18T07:25:46.478Z,2.65
2023-09-18T07:28:18.597Z,2.45
2023-09-18T07:30:47.080Z,3.15
2023-09-18T07:33:18.490Z,2.72
2023-09-18T07:35:50.002Z,2.97
2023-09-18T07:38:20.334Z,2.78
2023-09-18T07:40:49.033Z,2.67
2023-09-18T07:43:17.566Z,2.67
2023-09-18T07:45:45.964Z,2.28
2023-09-18T07:48:14.413Z,2.05
2023-09-18T07:50:46.545Z,2.00
2023-09-18T07:53:16.400Z,2.50
2023-09-18T07:55:44.869Z,2.38
2023-09-18T07:58:15.057Z,2.50
2023-09-18T08:00:43.441Z,2.33
2023-09-18T08:03:12.235Z,2.33
2023-09-18T08:05:42.098Z,1.80
2023-09-18T08:08:10.629Z,1.42
2023-09-18T08:10:41.632Z,1.70
2023-09-18T08:13:10.228Z,1.48
2023-09-18T08:15:39.110Z,1.67
2023-09-18T08:18:07.998Z,1.42
2023-09-18T08:20:38.390Z,1.33
2023-09-18T08:23:07.044Z,1.10
2023-09-18T08:25:35.368Z,1.42
2023-09-18T08:28:08.365Z,1.60
2023-09-18T08:30:40.341Z,1.38
2023-09-18T08:33:09.116Z,1.52
2023-09-18T08:35:37.413Z,1.75
2023-09-18T08:38:06.159Z,1.88
2023-09-18T08:40:36.046Z,1.77
2023-09-18T08:43:06.784Z,1.73
2023-09-18T08:45:40.560Z,1.33
2023-09-18T08:48:09.939Z,1.58
2023-09-18T08:50:38.941Z,1.80
2023-09-18T08:53:07.647Z,1.80
2023-09-18T08:55:36.564Z,1.80
2023-09-18T08:58:08.436Z,1.45
2023-09-18T09:00:39.569Z,1.88
2023-09-18T09:03:08.508Z,1.30
2023-09-18T09:05:36.969Z,1.40
2023-09-18T09:08:05.849Z,1.92
2023-09-18T09:10:34.287Z,1.30
2023-09-18T09:13:03.872Z,1.35
2023-09-18T09:15:47.395Z,1.30
2023-09-18T09:18:17.274Z,1.50
2023-09-18T09:20:56.872Z,1.17
2023-09-18T09:23:25.280Z,1.67
2023-09-18T09:25:53.721Z,1.65
2023-09-18T09:28:33.089Z,1.40
2023-09-18T09:31:06.957Z,1.88
2023-09-18T09:33:35.645Z,1.60
2023-09-18T09:36:07.411Z,1.63
2023-09-18T09:38:38.195Z,1.90
2023-09-18T09:41:08.235Z,1.83
2023-09-18T09:43:36.664Z,2.00
2023-09-18T09:46:06.704Z,1.92
2023-09-18T09:48:35.208Z,1.20
2023-09-18T09:51:04.390Z,1.80
2023-09-18T09:53:46.206Z,1.30
2023-09-18T09:56:14.908Z,1.42
2023-09-18T09:58:45.374Z,1.58
2023-09-18T10:01:19.193Z,1.77
2023-09-18T10:03:48.572Z,1.73
2023-09-18T10:06:18.367Z,1.48
2023-09-18T10:08:47.043Z,1.73
2023-09-18T10:11:18.911Z,2.47
2023-09-18T10:13:50.656Z,2.13
2023-09-18T10:16:22.075Z,1.88
2023-09-18T10:19:05.326Z,1.92
2023-09-18T10:21:41.227Z,2.22
2023-09-18T10:24:20.437Z,1.98
2023-09-18T10:26:57.750Z,0.93
2023-09-18T10:29:27.448Z,2.08
2023-09-18T10:31:57.606Z,1.42
2023-09-18T10:34:27.325Z,1.75
2023-09-18T10:36:57.147Z,1.15
2023-09-18T10:39:28.604Z,1.15
2023-09-18T10:42:04.874Z,1.10
2023-09-18T10:44:33.794Z,1.05
2023-09-18T10:47:07.473Z,1.20
2023-09-18T10:49:37.170Z,1.52
2023-09-18T10:52:06.320Z,1.02
2023-09-18T10:54:39.371Z,0.77
2023-09-18T10:57:07.917Z,1.10
2023-09-18T10:59:36.449Z,0.80
2023-09-18T11:02:07.438Z,0.73
2023-09-18T11:04:37.797Z,0.80
2023-09-18T11:07:07.567Z,0.57
2023-09-18T11:09:44.580Z,1.25
2023-09-18T11:12:14.599Z,0.60
2023-09-18T11:14:52.230Z,0.70
2023-09-18T11:17:41.734Z,0.90
2023-09-18T11:20:13.740Z,0.98
2023-09-18T11:22:48.217Z,1.02
2023-09-18T11:25:42.896Z,1.10
2023-09-18T11:28:17.617Z,1.20
2023-09-18T11:30:59.860Z,0.82
2023-09-18T11:33:37.370Z,0.80
2023-09-18T11:36:13.439Z,1.17
2023-09-18T11:39:04.906Z,0.80
2023-09-18T11:41:36.761Z,1.15
2023-09-18T11:44:42.551Z,0.75
2023-09-18T11:47:19.574Z,0.65
2023-09-18T11:49:56.275Z,0.75
2023-09-18T11:52:26.619Z,0.73
2023-09-18T11:54:56.507Z,0.82
2023-09-18T11:57:25.295Z,0.88
2023-09-18T11:59:53.961Z,0.98
2023-09-18T12:02:36.953Z,0.95
2023-09-18T12:05:14.066Z,0.85
2023-09-18T12:07:46.262Z,0.70
2023-09-18T12:10:18.409Z,0.73
2023-09-18T12:12:47.524Z,0.47
2023-09-18T12:15:16.951Z,0.73
2023-09-18T12:17:47.353Z,0.57
2023-09-18T12:20:21.259Z,0.30
2023-09-18T12:22:51.585Z,0.50
2023-09-18T12:25:25.069Z,0.60
2023-09-18T12:27:55.032Z,0.60
2023-09-18T12:30:24.712Z,0.45
2023-09-18T12:32:54.497Z,0.30
2023-09-18T12:35:30.535Z,0.50
2023-09-18T12:38:00.170Z,1.20
2023-09-18T12:40:30.049Z,0.90
2023-09-18T12:42:59.337Z,0.75
2023-09-18T12:45:28.839Z,0.50
2023-09-18T12:47:59.213Z,0.65
2023-09-18T12:50:29.525Z,0.65
2023-09-18T12:53:10.006Z,0.40
2023-09-18T12:55:39.549Z,0.65
2023-09-18T12:58:09.910Z,0.77
2023-09-18T13:00:38.838Z,0.80
2023-09-18T13:03:07.626Z,0.80
2023-09-18T13:05:37.576Z,0.73
2023-09-18T13:08:08.000Z,0.70
2023-09-18T13:10:45.233Z,0.90
2023-09-18T13:13:20.042Z,0.70
2023-09-18T13:15:50.405Z,0.70
2023-09-18T13:18:20.613Z,0.90
2023-09-18T13:20:50.719Z,1.13
2023-09-18T13:23:21.938Z,0.65
2023-09-18T13:25:50.739Z,1.10
2023-09-18T13:28:22.142Z,0.63
2023-09-18T13:30:50.801Z,0.60
2023-09-18T13:33:21.149Z,0.50
2023-09-18T13:35:51.732Z,0.77
2023-09-18T13:38:20.430Z,0.30
2023-09-18T13:40:50.168Z,0.50
2023-09-18T13:43:19.985Z,0.45
2023-09-18T13:45:48.403Z,0.70
2023-09-18T13:48:17.791Z,0.40
2023-09-18T13:50:47.140Z,0.40
2023-09-18T13:53:17.176Z,0.40
2023-09-18T13:55:45.546Z,0.30
2023-09-18T13:58:13.866Z,0.47
2023-09-18T14:00:45.145Z,0.20
2023-09-18T14:03:16.746Z,0.20
2023-09-18T14:05:45.264Z,0.20
2023-09-18T14:08:13.710Z,0.30
2023-09-18T14:10:44.207Z,0.28
2023-09-18T14:13:12.690Z,0.28
2023-09-18T14:15:41.497Z,0.20
2023-09-18T14:18:10.359Z,0.10
2023-09-18T14:20:38.755Z,0.22
2023-09-18T14:23:07.638Z,0.20
2023-09-18T14:25:36.163Z,0.10
2023-09-18T14:28:06.458Z,0.10
2023-09-18T14:30:35.643Z,0.10
2023-09-18T14:33:04.341Z,0.32
2023-09-18T14:35:33.141Z,0.32
2023-09-18T14:38:01.483Z,0.20
2023-09-18T14:40:29.826Z,0.20
2023-09-18T14:42:58.214Z,0.20
2023-09-18T14:45:28.127Z,0.20
2023-09-18T14:47:56.624Z,0.10
2023-09-18T14:50:25.000Z,0.47
2023-09-18T14:52:53.845Z,0.30
2023-09-18T14:55:22.238Z,0.30
2023-09-18T14:57:54.929Z,0.52
2023-09-18T15:00:23.907Z,0.35
2023-09-18T15:02:53.840Z,0.32
2023-09-18T15:05:22.334Z,0.52
2023-09-18T15:07:50.663Z,0.55
2023-09-18T15:10:19.351Z,0.60
2023-09-18T15:12:47.848Z,0.82
2023-09-18T15:15:16.351Z,0.40
2023-09-18T15:17:44.761Z,0.40
2023-09-18T15:20:14.659Z,0.35
2023-09-18T15:22:42.956Z,0.70
2023-09-18T15:25:11.956Z,0.43
2023-09-18T15:27:40.449Z,0.70
2023-09-18T15:30:09.914Z,0.43
2023-09-18T15:32:50.709Z,0.50
2023-09-18T15:35:20.900Z,0.50
2023-09-18T15:37:49.289Z,0.98
2023-09-18T15:40:20.268Z,0.85
2023-09-18T15:42:49.006Z,0.50
2023-09-18T15:45:17.462Z,0.65
2023-09-18T15:47:47.050Z,0.47
2023-09-18T15:50:16.966Z,0.57
2023-09-18T15:52:47.367Z,0.85
2023-09-18T15:55:16.183Z,0.98
2023-09-18T15:57:45.574Z,0.60
2023-09-18T16:00:15.125Z,0.68
2023-09-18T16:02:44.908Z,1.13
2023-09-18T16:05:14.082Z,0.98
2023-09-18T16:07:43.185Z,0.75
2023-09-18T16:10:13.507Z,0.90
2023-09-18T16:12:42.036Z,0.63
2023-09-18T16:15:11.200Z,0.40
2023-09-18T16:17:39.704Z,1.17
2023-09-18T16:20:09.686Z,0.88
2023-09-18T16:22:38.477Z,0.95
2023-09-18T16:25:07.549Z,0.52
2023-09-18T16:27:37.404Z,1.17
2023-09-18T16:30:07.376Z,0.57
2023-09-18T16:32:40.062Z,0.60
2023-09-18T16:35:09.739Z,0.73
2023-09-18T16:37:40.195Z,0.88
2023-09-18T16:40:12.555Z,0.93
2023-09-18T16:42:42.447Z,1.10
2023-09-18T16:45:11.620Z,0.77
2023-09-18T16:47:40.123Z,0.57
2023-09-18T16:50:09.316Z,0.88
2023-09-18T16:52:40.164Z,0.45
2023-09-18T16:55:10.026Z,0.73
2023-09-18T16:57:38.434Z,0.73
2023-09-18T17:00:09.841Z,0.60
2023-09-18T17:02:38.378Z,0.55
2023-09-18T17:05:07.785Z,0.43
2023-09-18T17:07:36.287Z,0.50
2023-09-18T17:10:05.875Z,0.35
2023-09-18T17:12:38.543Z,0.65
2023-09-18T17:15:10.468Z,0.73
2023-09-18T17:17:39.651Z,1.00
2023-09-18T17:20:09.524Z,0.77
2023-09-18T17:22:38.828Z,0.80
2023-09-18T17:25:08.882Z,1.58
2023-09-18T17:27:37.330Z,0.77
2023-09-18T17:30:08.260Z,0.73
2023-09-18T17:32:38.527Z,0.80
2023-09-18T17:35:08.350Z,0.77
2023-09-18T17:37:36.764Z,0.95
2023-09-18T17:40:06.110Z,1.30
2023-09-18T17:42:34.605Z,1.52
2023-09-18T17:45:03.066Z,1.10
2023-09-18T17:47:31.753Z,1.20
2023-09-18T17:50:01.812Z,0.93
2023-09-18T17:52:30.175Z,0.82
2023-09-18T17:54:59.237Z,0.93
2023-09-18T17:57:27.640Z,1.08
2023-09-18T17:59:56.306Z,0.70
2023-09-18T18:02:25.128Z,0.57
2023-09-18T18:04:54.275Z,0.60
2023-09-18T18:07:24.526Z,0.98
2023-09-18T18:09:53.084Z,0.45
2023-09-18T18:12:21.468Z,0.98
2023-09-18T18:14:51.262Z,0.70
2023-09-18T18:17:19.924Z,0.82
2023-09-18T18:19:48.238Z,0.90
2023-09-18T18:22:16.698Z,1.15
2023-09-18T18:24:46.418Z,0.45
2023-09-18T18:27:14.838Z,0.60
2023-09-18T18:29:43.249Z,0.75
2023-09-18T18:32:11.833Z,0.30
2023-09-18T18:34:40.378Z,0.47
2023-09-18T18:37:08.718Z,0.20
2023-09-18T18:39:38.276Z,0.28
2023-09-18T18:42:09.637Z,0.32
2023-09-18T18:44:38.167Z,0.30
2023-09-18T18:47:07.040Z,0.22
2023-09-18T18:49:35.480Z,0.28
2023-09-18T18:52:04.115Z,0.17
2023-09-18T18:54:33.082Z,0.45
2023-09-18T18:57:01.486Z,0.10
2023-09-18T18:59:31.405Z,0.30
2023-09-18T19:01:59.950Z,0.50
2023-09-18T19:04:28.392Z,0.40
2023-09-18T19:06:56.796Z,0.60
2023-09-18T19:09:25.361Z,1.17
2023-09-18T19:11:53.888Z,0.55
2023-09-18T19:14:22.355Z,0.50
2023-09-18T19:16:52.249Z,0.43
2023-09-18T19:19:20.670Z,0.20
2023-09-18T19:21:49.829Z,0.70
2023-09-18T19:24:18.328Z,0.52
2023-09-18T19:26:46.920Z,0.60
2023-09-18T19:29:17.396Z,1.08
2023-09-18T19:31:48.014Z,0.68
2023-09-18T19:34:17.974Z,0.52
2023-09-18T19:37:02.522Z,0.50
2023-09-18T19:39:31.370Z,0.47
2023-09-18T19:42:03.991Z,0.30
2023-09-18T19:44:32.563Z,0.63
2023-09-18T19:47:02.448Z,0.63
2023-09-18T19:49:33.324Z,0.55
2023-09-18T19:52:01.686Z,0.70
2023-09-18T19:54:31.838Z,0.57
2023-09-18T19:57:00.733Z,0.60
2023-09-18T19:59:29.119Z,0.85
2023-09-18T20:01:57.565Z,0.35
2023-09-18T20:04:26.014Z,0.60
2023-09-18T20:06:56.217Z,0.57
2023-09-18T20:09:25.196Z,0.40
2023-09-18T20:11:53.576Z,0.70
2023-09-18T20:14:31.233Z,0.32
2023-09-18T20:17:00.930Z,0.80
2023-09-18T20:19:29.296Z,0.45
2023-09-18T20:21:59.348Z,0.38
2023-09-18T20:24:27.771Z,0.55
2023-09-18T20:26:56.341Z,0.50
2023-09-18T20:29:24.959Z,0.50
2023-09-18T20:31:54.008Z,0.40
2023-09-18T20:34:23.748Z,0.65
2023-09-18T20:36:52.459Z,0.70
2023-09-18T20:39:22.336Z,0.47
2023-09-18T20:41:51.053Z,0.50
2023-09-18T20:44:19.864Z,0.30
2023-09-18T20:46:48.290Z,0.45
2023-09-18T20:49:16.641Z,0.77
2023-09-18T20:51:45.179Z,0.50
2023-09-18T20:54:14.386Z,0.30
2023-09-18T20:56:44.320Z,0.55
2023-09-18T20:59:13.061Z,0.50
2023-09-18T21:01:44.332Z,0.68
2023-09-18T21:04:12.958Z,0.40
2023-09-18T21:06:41.412Z,0.68
2023-09-18T21:09:12.829Z,0.68
2023-09-18T21:11:43.211Z,0.73
2023-09-18T21:14:13.098Z,0.50
2023-09-18T21:16:41.443Z,0.43
2023-09-18T21:19:09.820Z,0.65
2023-09-18T21:21:38.133Z,0.43
2023-09-18T21:24:07.239Z,0.32
2023-09-18T21:26:35.635Z,0.93
2023-09-18T21:29:03.997Z,0.60
2023-09-18T21:31:34.018Z,0.60
2023-09-18T21:34:02.528Z,0.38
2023-09-18T21:36:30.851Z,0.30
2023-09-18T21:38:59.242Z,0.95
2023-09-18T21:41:27.667Z,0.50
2023-09-18T21:43:56.033Z,0.43
2023-09-18T21:46:24.434Z,0.35
2023-09-18T21:48:54.591Z,0.47
2023-09-18T21:51:23.175Z,0.47
2023-09-18T21:53:51.513Z,0.45
2023-09-18T21:56:20.007Z,0.60
2023-09-18T21:58:48.388Z,0.43
2023-09-18T22:01:17.026Z,0.43
2023-09-18T22:03:47.592Z,0.57
2023-09-18T22:06:17.436Z,0.40
2023-09-18T22:08:45.906Z,0.50
2023-09-18T22:11:14.494Z,0.35
2023-09-18T22:13:43.095Z,0.30
2023-09-18T22:16:11.483Z,0.65
2023-09-18T22:18:40.478Z,0.47
2023-09-18T22:21:10.299Z,0.38
2023-09-18T22:23:40.237Z,0.40
2023-09-18T22:26:09.353Z,0.50
2023-09-18T22:28:40.869Z,0.30
2023-09-18T22:31:14.763Z,0.43
2023-09-18T22:33:43.449Z,1.13
2023-09-18T22:36:24.880Z,0.80
2023-09-18T22:39:10.866Z,0.50
2023-09-18T22:41:40.330Z,0.40
2023-09-18T22:44:46.135Z,0.50
2023-09-18T22:47:53.645Z,0.68
2023-09-18T22:50:59.024Z,0.15
2023-09-18T22:53:27.020Z,0.77
2023-09-18T22:55:56.994Z,0.68
2023-09-18T23:00:58.377Z,0.65
2023-09-18T23:03:28.400Z,0.60
2023-09-18T23:05:57.029Z,0.40
2023-09-18T23:08:25.746Z,0.38
2023-09-18T23:10:54.116Z,0.38
2023-09-18T23:13:26.136Z,0.40
2023-09-18T23:15:54.596Z,0.43
2023-09-18T23:18:24.237Z,0.30
2023-09-18T23:20:53.202Z,0.82
2023-09-18T23:23:22.243Z,0.73
2023-09-18T23:25:55.551Z,0.57
2023-09-18T23:28:25.668Z,0.90
2023-09-18T23:30:55.026Z,0.52
2023-09-18T23:33:25.393Z,0.68
2023-09-18T23:35:54.605Z,0.60
2023-09-18T23:38:24.893Z,0.40
2023-09-18T23:40:53.344Z,1.33
2023-09-18T23:43:21.976Z,0.57
2023-09-18T23:45:55.560Z,0.40
2023-09-18T23:48:24.362Z,0.40
2023-09-18T23:50:53.922Z,0.65
2023-09-18T23:53:26.231Z,0.30
2023-09-18T23:55:55.341Z,0.93
2023-09-18T23:58:23.865Z,0.52
